sensor_id;sensor_type;location;lat;lon;timestamp;temperature;humidity
77052;SHT30;65980;44.898;8.602;2023-11-22T00:02:08;7.79;84.97
77052;SHT30;65980;44.898;8.602;2023-11-22T00:05:11;7.75;85.07
77052;SHT30;65980;44.898;8.602;2023-11-22T00:08:16;7.73;84.88
77052;SHT30;65980;44.898;8.602;2023-11-22T00:11:21;7.72;84.87
77052;SHT30;65980;44.898;8.602;2023-11-22T00:14:25;7.62;84.95
77052;SHT30;65980;44.898;8.602;2023-11-22T00:17:30;7.59;85.03
77052;SHT30;65980;44.898;8.602;2023-11-22T00:20:34;7.48;85.12
77052;SHT30;65980;44.898;8.602;2023-11-22T00:23:38;7.58;85.21
77052;SHT30;65980;44.898;8.602;2023-11-22T00:26:42;7.28;85.33
77052;SHT30;65980;44.898;8.602;2023-11-22T00:29:49;7.22;86.16
77052;SHT30;65980;44.898;8.602;2023-11-22T00:32:53;7.24;86.01
77052;SHT30;65980;44.898;8.602;2023-11-22T00:35:57;7.21;86.00
77052;SHT30;65980;44.898;8.602;2023-11-22T00:39:02;7.21;85.95
77052;SHT30;65980;44.898;8.602;2023-11-22T00:42:08;7.25;85.56
77052;SHT30;65980;44.898;8.602;2023-11-22T00:45:12;7.04;86.36
77052;SHT30;65980;44.898;8.602;2023-11-22T00:48:17;6.99;86.32
77052;SHT30;65980;44.898;8.602;2023-11-22T00:51:21;6.96;86.31
77052;SHT30;65980;44.898;8.602;2023-11-22T00:54:25;6.92;86.72
77052;SHT30;65980;44.898;8.602;2023-11-22T00:57:30;6.90;86.33
77052;SHT30;65980;44.898;8.602;2023-11-22T01:00:35;6.75;86.89
77052;SHT30;65980;44.898;8.602;2023-11-22T01:03:39;6.86;86.66
77052;SHT30;65980;44.898;8.602;2023-11-22T01:06:43;6.87;86.32
77052;SHT30;65980;44.898;8.602;2023-11-22T01:09:46;6.69;86.56
77052;SHT30;65980;44.898;8.602;2023-11-22T01:12:51;6.69;86.64
77052;SHT30;65980;44.898;8.602;2023-11-22T01:15:57;6.59;86.84
77052;SHT30;65980;44.898;8.602;2023-11-22T01:19:02;6.48;87.07
77052;SHT30;65980;44.898;8.602;2023-11-22T01:22:07;6.35;87.36
77052;SHT30;65980;44.898;8.602;2023-11-22T01:25:11;6.34;87.60
77052;SHT30;65980;44.898;8.602;2023-11-22T01:28:16;6.37;87.66
77052;SHT30;65980;44.898;8.602;2023-11-22T01:31:23;6.24;87.88
77052;SHT30;65980;44.898;8.602;2023-11-22T01:34:27;6.31;88.06
77052;SHT30;65980;44.898;8.602;2023-11-22T01:37:33;6.27;87.65
77052;SHT30;65980;44.898;8.602;2023-11-22T01:40:46;6.28;88.01
77052;SHT30;65980;44.898;8.602;2023-11-22T01:43:51;6.44;87.25
77052;SHT30;65980;44.898;8.602;2023-11-22T01:46:56;6.55;86.82
77052;SHT30;65980;44.898;8.602;2023-11-22T01:50:02;6.65;86.63
77052;SHT30;65980;44.898;8.602;2023-11-22T01:53:13;6.76;85.71
77052;SHT30;65980;44.898;8.602;2023-11-22T01:56:18;6.58;86.12
77052;SHT30;65980;44.898;8.602;2023-11-22T01:59:22;6.59;86.65
77052;SHT30;65980;44.898;8.602;2023-11-22T02:02:27;6.75;85.44
77052;SHT30;65980;44.898;8.602;2023-11-22T02:05:32;6.83;85.49
77052;SHT30;65980;44.898;8.602;2023-11-22T02:08:37;6.96;84.50
77052;SHT30;65980;44.898;8.602;2023-11-22T02:11:41;7.05;83.96
77052;SHT30;65980;44.898;8.602;2023-11-22T02:14:53;6.75;84.99
77052;SHT30;65980;44.898;8.602;2023-11-22T02:17:57;7.01;83.79
77052;SHT30;65980;44.898;8.602;2023-11-22T02:21:01;7.01;82.68
77052;SHT30;65980;44.898;8.602;2023-11-22T02:24:05;7.07;82.16
77052;SHT30;65980;44.898;8.602;2023-11-22T02:27:12;6.96;82.95
77052;SHT30;65980;44.898;8.602;2023-11-22T02:30:15;6.97;82.81
77052;SHT30;65980;44.898;8.602;2023-11-22T02:33:20;6.71;83.17
77052;SHT30;65980;44.898;8.602;2023-11-22T02:36:25;6.71;84.20
77052;SHT30;65980;44.898;8.602;2023-11-22T02:43:15;6.76;83.60
77052;SHT30;65980;44.898;8.602;2023-11-22T02:46:19;6.86;82.81
77052;SHT30;65980;44.898;8.602;2023-11-22T02:49:23;6.80;83.27
77052;SHT30;65980;44.898;8.602;2023-11-22T02:52:28;6.71;84.01
77052;SHT30;65980;44.898;8.602;2023-11-22T02:55:32;6.69;83.24
77052;SHT30;65980;44.898;8.602;2023-11-22T02:58:35;6.59;83.69
77052;SHT30;65980;44.898;8.602;2023-11-22T03:01:40;6.20;85.93
77052;SHT30;65980;44.898;8.602;2023-11-22T03:04:47;6.31;85.25
77052;SHT30;65980;44.898;8.602;2023-11-22T03:07:52;6.24;85.10
77052;SHT30;65980;44.898;8.602;2023-11-22T03:10:57;6.59;83.68
77052;SHT30;65980;44.898;8.602;2023-11-22T03:14:01;6.68;83.45
77052;SHT30;65980;44.898;8.602;2023-11-22T03:17:08;6.55;83.62
77052;SHT30;65980;44.898;8.602;2023-11-22T03:20:12;6.61;83.90
77052;SHT30;65980;44.898;8.602;2023-11-22T03:23:16;6.73;82.79
77052;SHT30;65980;44.898;8.602;2023-11-22T03:26:21;6.85;82.32
77052;SHT30;65980;44.898;8.602;2023-11-22T03:29:26;6.92;81.51
77052;SHT30;65980;44.898;8.602;2023-11-22T03:32:32;6.93;81.60
77052;SHT30;65980;44.898;8.602;2023-11-22T03:35:41;6.90;81.60
77052;SHT30;65980;44.898;8.602;2023-11-22T03:38:45;6.86;81.55
77052;SHT30;65980;44.898;8.602;2023-11-22T03:41:51;6.85;82.06
77052;SHT30;65980;44.898;8.602;2023-11-22T03:44:55;6.83;82.33
77052;SHT30;65980;44.898;8.602;2023-11-22T03:47:59;6.72;82.79
77052;SHT30;65980;44.898;8.602;2023-11-22T03:51:05;6.72;82.78
77052;SHT30;65980;44.898;8.602;2023-11-22T03:54:10;6.25;84.61
77052;SHT30;65980;44.898;8.602;2023-11-22T03:57:17;6.52;83.63
77052;SHT30;65980;44.898;8.602;2023-11-22T04:00:22;6.20;84.50
77052;SHT30;65980;44.898;8.602;2023-11-22T04:03:27;6.38;83.59
77052;SHT30;65980;44.898;8.602;2023-11-22T04:06:32;6.49;82.75
77052;SHT30;65980;44.898;8.602;2023-11-22T04:09:37;6.40;82.74
77052;SHT30;65980;44.898;8.602;2023-11-22T04:12:42;6.46;83.05
77052;SHT30;65980;44.898;8.602;2023-11-22T04:15:45;6.55;82.52
77052;SHT30;65980;44.898;8.602;2023-11-22T04:18:49;6.24;82.75
77052;SHT30;65980;44.898;8.602;2023-11-22T04:21:57;6.02;84.27
77052;SHT30;65980;44.898;8.602;2023-11-22T04:25:02;6.14;83.39
77052;SHT30;65980;44.898;8.602;2023-11-22T04:28:06;5.97;85.07
77052;SHT30;65980;44.898;8.602;2023-11-22T04:31:13;6.27;83.47
77052;SHT30;65980;44.898;8.602;2023-11-22T04:34:16;6.28;82.73
77052;SHT30;65980;44.898;8.602;2023-11-22T04:37:21;6.25;83.16
77052;SHT30;65980;44.898;8.602;2023-11-22T04:40:29;6.20;83.96
77052;SHT30;65980;44.898;8.602;2023-11-22T04:43:33;6.14;83.58
77052;SHT30;65980;44.898;8.602;2023-11-22T04:46:38;6.18;83.37
77052;SHT30;65980;44.898;8.602;2023-11-22T04:49:43;6.32;82.95
77052;SHT30;65980;44.898;8.602;2023-11-22T04:52:48;6.27;82.34
77052;SHT30;65980;44.898;8.602;2023-11-22T04:55:53;6.30;82.85
77052;SHT30;65980;44.898;8.602;2023-11-22T04:58:58;6.32;81.77
77052;SHT30;65980;44.898;8.602;2023-11-22T05:02:02;6.38;81.86
77052;SHT30;65980;44.898;8.602;2023-11-22T05:05:07;6.44;81.65
77052;SHT30;65980;44.898;8.602;2023-11-22T05:08:13;6.48;81.65
77052;SHT30;65980;44.898;8.602;2023-11-22T05:11:17;6.13;82.97
77052;SHT30;65980;44.898;8.602;2023-11-22T05:14:22;6.20;82.02
77052;SHT30;65980;44.898;8.602;2023-11-22T05:17:28;6.21;81.88
77052;SHT30;65980;44.898;8.602;2023-11-22T05:20:31;5.92;82.39
77052;SHT30;65980;44.898;8.602;2023-11-22T05:23:36;6.06;82.38
77052;SHT30;65980;44.898;8.602;2023-11-22T05:26:42;6.20;81.22
77052;SHT30;65980;44.898;8.602;2023-11-22T05:29:45;6.18;81.10
77052;SHT30;65980;44.898;8.602;2023-11-22T05:32:51;5.76;82.03
77052;SHT30;65980;44.898;8.602;2023-11-22T05:35:56;5.66;83.17
77052;SHT30;65980;44.898;8.602;2023-11-22T05:38:59;5.52;84.31
77052;SHT30;65980;44.898;8.602;2023-11-22T05:42:04;5.63;84.00
77052;SHT30;65980;44.898;8.602;2023-11-22T05:45:09;5.73;84.21
77052;SHT30;65980;44.898;8.602;2023-11-22T05:48:14;5.75;83.17
77052;SHT30;65980;44.898;8.602;2023-11-22T05:51:19;5.45;84.22
77052;SHT30;65980;44.898;8.602;2023-11-22T05:54:22;4.92;87.04
77052;SHT30;65980;44.898;8.602;2023-11-22T05:57:27;4.71;88.16
77052;SHT30;65980;44.898;8.602;2023-11-22T06:00:30;4.71;90.73
77052;SHT30;65980;44.898;8.602;2023-11-22T06:03:36;4.65;90.39
77052;SHT30;65980;44.898;8.602;2023-11-22T06:06:40;4.68;90.36
77052;SHT30;65980;44.898;8.602;2023-11-22T06:09:45;4.33;90.20
77052;SHT30;65980;44.898;8.602;2023-11-22T06:12:49;3.86;91.13
77052;SHT30;65980;44.898;8.602;2023-11-22T06:15:53;3.61;92.26
77052;SHT30;65980;44.898;8.602;2023-11-22T06:18:58;3.42;92.86
77052;SHT30;65980;44.898;8.602;2023-11-22T06:22:01;3.58;92.20
77052;SHT30;65980;44.898;8.602;2023-11-22T06:25:05;3.34;93.13
77052;SHT30;65980;44.898;8.602;2023-11-22T06:28:10;3.47;93.12
77052;SHT30;65980;44.898;8.602;2023-11-22T06:31:15;3.04;93.90
77052;SHT30;65980;44.898;8.602;2023-11-22T06:34:20;2.95;94.77
77052;SHT30;65980;44.898;8.602;2023-11-22T06:37:24;3.04;94.96
77052;SHT30;65980;44.898;8.602;2023-11-22T06:40:30;3.00;94.71
77052;SHT30;65980;44.898;8.602;2023-11-22T06:43:33;3.04;94.55
77052;SHT30;65980;44.898;8.602;2023-11-22T06:46:38;2.81;94.42
77052;SHT30;65980;44.898;8.602;2023-11-22T06:49:42;2.62;94.45
77052;SHT30;65980;44.898;8.602;2023-11-22T06:52:46;2.91;94.31
77052;SHT30;65980;44.898;8.602;2023-11-22T06:55:53;3.07;93.63
77052;SHT30;65980;44.898;8.602;2023-11-22T06:59:01;2.89;92.65
77052;SHT30;65980;44.898;8.602;2023-11-22T07:02:07;2.78;92.80
77052;SHT30;65980;44.898;8.602;2023-11-22T07:05:13;3.06;92.30
77052;SHT30;65980;44.898;8.602;2023-11-22T07:08:18;3.09;91.54
77052;SHT30;65980;44.898;8.602;2023-11-22T07:11:23;3.16;91.56
77052;SHT30;65980;44.898;8.602;2023-11-22T07:14:29;3.31;91.47
77052;SHT30;65980;44.898;8.602;2023-11-22T07:17:33;3.64;90.88
77052;SHT30;65980;44.898;8.602;2023-11-22T07:20:37;3.65;89.57
77052;SHT30;65980;44.898;8.602;2023-11-22T07:23:43;3.74;89.45
77052;SHT30;65980;44.898;8.602;2023-11-22T07:26:48;3.81;89.85
77052;SHT30;65980;44.898;8.602;2023-11-22T07:29:53;3.71;89.79
77052;SHT30;65980;44.898;8.602;2023-11-22T07:32:58;3.67;89.91
77052;SHT30;65980;44.898;8.602;2023-11-22T07:36:10;3.74;89.44
77052;SHT30;65980;44.898;8.602;2023-11-22T07:39:18;3.75;88.79
77052;SHT30;65980;44.898;8.602;2023-11-22T07:42:24;3.57;89.30
77052;SHT30;65980;44.898;8.602;2023-11-22T07:45:28;3.64;89.41
77052;SHT30;65980;44.898;8.602;2023-11-22T07:48:32;3.50;89.27
77052;SHT30;65980;44.898;8.602;2023-11-22T07:51:37;3.47;89.89
77052;SHT30;65980;44.898;8.602;2023-11-22T07:54:41;3.45;90.07
77052;SHT30;65980;44.898;8.602;2023-11-22T07:57:46;3.64;89.90
77052;SHT30;65980;44.898;8.602;2023-11-22T08:00:52;3.78;90.08
77052;SHT30;65980;44.898;8.602;2023-11-22T08:04:00;3.97;89.88
77052;SHT30;65980;44.898;8.602;2023-11-22T08:07:04;4.16;90.19
77052;SHT30;65980;44.898;8.602;2023-11-22T08:10:10;4.45;89.19
77052;SHT30;65980;44.898;8.602;2023-11-22T08:13:22;4.62;87.69
77052;SHT30;65980;44.898;8.602;2023-11-22T08:16:26;4.55;87.34
77052;SHT30;65980;44.898;8.602;2023-11-22T08:19:30;4.44;87.72
77052;SHT30;65980;44.898;8.602;2023-11-22T08:22:34;4.17;89.26
77052;SHT30;65980;44.898;8.602;2023-11-22T08:25:39;4.20;88.58
77052;SHT30;65980;44.898;8.602;2023-11-22T08:28:45;4.34;88.94
77052;SHT30;65980;44.898;8.602;2023-11-22T08:31:50;4.45;88.00
77052;SHT30;65980;44.898;8.602;2023-11-22T08:34:54;4.48;88.34
77052;SHT30;65980;44.898;8.602;2023-11-22T08:38:11;4.54;87.72
77052;SHT30;65980;44.898;8.602;2023-11-22T08:41:16;4.75;87.48
77052;SHT30;65980;44.898;8.602;2023-11-22T08:44:23;5.16;86.68
77052;SHT30;65980;44.898;8.602;2023-11-22T08:47:32;4.93;86.03
77052;SHT30;65980;44.898;8.602;2023-11-22T08:51:04;4.82;87.07
77052;SHT30;65980;44.898;8.602;2023-11-22T08:54:20;4.52;87.26
77052;SHT30;65980;44.898;8.602;2023-11-22T08:57:26;4.42;87.93
77052;SHT30;65980;44.898;8.602;2023-11-22T09:00:31;4.34;88.81
77052;SHT30;65980;44.898;8.602;2023-11-22T09:03:36;4.55;88.79
77052;SHT30;65980;44.898;8.602;2023-11-22T09:06:42;4.83;87.86
77052;SHT30;65980;44.898;8.602;2023-11-22T09:09:46;5.24;87.42
77052;SHT30;65980;44.898;8.602;2023-11-22T09:12:51;5.82;85.83
77052;SHT30;65980;44.898;8.602;2023-11-22T09:16:00;6.38;83.48
77052;SHT30;65980;44.898;8.602;2023-11-22T09:19:05;6.99;81.65
77052;SHT30;65980;44.898;8.602;2023-11-22T09:22:11;6.51;82.00
77052;SHT30;65980;44.898;8.602;2023-11-22T09:25:16;6.61;82.05
77052;SHT30;65980;44.898;8.602;2023-11-22T09:28:22;6.69;82.08
77052;SHT30;65980;44.898;8.602;2023-11-22T09:31:40;6.59;82.53
77052;SHT30;65980;44.898;8.602;2023-11-22T09:34:46;6.58;83.16
77052;SHT30;65980;44.898;8.602;2023-11-22T09:37:51;6.48;84.71
77052;SHT30;65980;44.898;8.602;2023-11-22T09:40:55;6.86;82.82
77052;SHT30;65980;44.898;8.602;2023-11-22T09:44:01;7.52;80.58
77052;SHT30;65980;44.898;8.602;2023-11-22T09:47:10;7.45;80.33
77052;SHT30;65980;44.898;8.602;2023-11-22T09:50:19;7.83;79.21
77052;SHT30;65980;44.898;8.602;2023-11-22T09:53:52;8.46;77.34
77052;SHT30;65980;44.898;8.602;2023-11-22T09:56:59;8.81;76.03
77052;SHT30;65980;44.898;8.602;2023-11-22T10:00:06;8.49;77.49
77052;SHT30;65980;44.898;8.602;2023-11-22T10:03:18;8.60;77.05
77052;SHT30;65980;44.898;8.602;2023-11-22T10:06:24;8.42;77.79
77052;SHT30;65980;44.898;8.602;2023-11-22T10:09:28;8.48;78.19
77052;SHT30;65980;44.898;8.602;2023-11-22T10:12:34;8.50;79.45
77052;SHT30;65980;44.898;8.602;2023-11-22T10:15:50;8.81;78.83
77052;SHT30;65980;44.898;8.602;2023-11-22T10:19:06;9.50;77.09
77052;SHT30;65980;44.898;8.602;2023-11-22T10:22:10;9.94;74.96
77052;SHT30;65980;44.898;8.602;2023-11-22T10:25:19;10.62;73.46
77052;SHT30;65980;44.898;8.602;2023-11-22T10:28:26;10.66;72.63
77052;SHT30;65980;44.898;8.602;2023-11-22T10:35:28;9.98;76.71
77052;SHT30;65980;44.898;8.602;2023-11-22T10:38:34;9.72;77.60
77052;SHT30;65980;44.898;8.602;2023-11-22T10:41:41;10.15;77.70
77052;SHT30;65980;44.898;8.602;2023-11-22T10:44:46;10.38;76.92
77052;SHT30;65980;44.898;8.602;2023-11-22T10:47:56;10.44;76.39
77052;SHT30;65980;44.898;8.602;2023-11-22T10:51:03;10.79;75.90
77052;SHT30;65980;44.898;8.602;2023-11-22T10:54:11;11.24;74.23
77052;SHT30;65980;44.898;8.602;2023-11-22T10:57:19;11.27;74.14
77052;SHT30;65980;44.898;8.602;2023-11-22T11:00:27;11.55;74.07
77052;SHT30;65980;44.898;8.602;2023-11-22T11:03:39;12.11;72.21
77052;SHT30;65980;44.898;8.602;2023-11-22T11:06:51;13.65;68.03
77052;SHT30;65980;44.898;8.602;2023-11-22T11:09:59;14.61;63.90
77052;SHT30;65980;44.898;8.602;2023-11-22T11:13:04;14.80;63.05
77052;SHT30;65980;44.898;8.602;2023-11-22T11:16:09;15.11;61.75
77052;SHT30;65980;44.898;8.602;2023-11-22T11:19:15;15.07;62.01
77052;SHT30;65980;44.898;8.602;2023-11-22T11:22:21;14.38;64.95
77052;SHT30;65980;44.898;8.602;2023-11-22T11:25:26;14.18;65.92
77052;SHT30;65980;44.898;8.602;2023-11-22T11:32:30;13.89;67.00
77052;SHT30;65980;44.898;8.602;2023-11-22T11:35:43;14.13;68.21
77052;SHT30;65980;44.898;8.602;2023-11-22T11:38:52;14.93;64.30
77052;SHT30;65980;44.898;8.602;2023-11-22T11:42:10;15.10;65.68
77052;SHT30;65980;44.898;8.602;2023-11-22T11:45:15;15.36;64.81
77052;SHT30;65980;44.898;8.602;2023-11-22T11:48:21;15.69;62.82
77052;SHT30;65980;44.898;8.602;2023-11-22T11:51:28;16.31;60.32
77052;SHT30;65980;44.898;8.602;2023-11-22T11:54:35;16.91;59.31
77052;SHT30;65980;44.898;8.602;2023-11-22T11:57:41;17.61;57.05
77052;SHT30;65980;44.898;8.602;2023-11-22T12:00:46;18.37;54.39
77052;SHT30;65980;44.898;8.602;2023-11-22T12:04:03;17.63;55.52
77052;SHT30;65980;44.898;8.602;2023-11-22T12:07:08;17.96;55.43
77052;SHT30;65980;44.898;8.602;2023-11-22T12:10:19;17.44;56.14
77052;SHT30;65980;44.898;8.602;2023-11-22T12:13:26;18.51;53.45
77052;SHT30;65980;44.898;8.602;2023-11-22T12:16:30;19.78;48.15
77052;SHT30;65980;44.898;8.602;2023-11-22T12:19:35;20.78;46.32
77052;SHT30;65980;44.898;8.602;2023-11-22T12:22:44;21.83;44.52
77052;SHT30;65980;44.898;8.602;2023-11-22T12:25:53;22.31;42.49
77052;SHT30;65980;44.898;8.602;2023-11-22T12:28:58;19.42;49.38
77052;SHT30;65980;44.898;8.602;2023-11-22T12:32:03;17.70;54.24
77052;SHT30;65980;44.898;8.602;2023-11-22T12:35:17;18.03;52.52
77052;SHT30;65980;44.898;8.602;2023-11-22T12:38:23;19.24;48.71
77052;SHT30;65980;44.898;8.602;2023-11-22T12:41:32;18.00;53.30
77052;SHT30;65980;44.898;8.602;2023-11-22T12:44:52;17.20;55.07
77052;SHT30;65980;44.898;8.602;2023-11-22T12:47:57;17.69;55.12
77052;SHT30;65980;44.898;8.602;2023-11-22T12:51:15;17.69;53.30
77052;SHT30;65980;44.898;8.602;2023-11-22T12:54:23;19.87;48.91
77052;SHT30;65980;44.898;8.602;2023-11-22T12:57:28;19.06;49.18
77052;SHT30;65980;44.898;8.602;2023-11-22T13:00:32;18.04;52.37
77052;SHT30;65980;44.898;8.602;2023-11-22T13:03:37;17.96;52.33
77052;SHT30;65980;44.898;8.602;2023-11-22T13:06:42;19.32;48.52
77052;SHT30;65980;44.898;8.602;2023-11-22T13:09:47;18.49;50.17
77052;SHT30;65980;44.898;8.602;2023-11-22T13:12:58;17.73;52.93
77052;SHT30;65980;44.898;8.602;2023-11-22T13:16:05;17.55;53.07
77052;SHT30;65980;44.898;8.602;2023-11-22T13:19:12;17.30;52.89
77052;SHT30;65980;44.898;8.602;2023-11-22T13:22:16;17.14;53.67
77052;SHT30;65980;44.898;8.602;2023-11-22T13:25:22;17.34;53.91
77052;SHT30;65980;44.898;8.602;2023-11-22T13:28:28;17.69;51.46
77052;SHT30;65980;44.898;8.602;2023-11-22T13:31:35;18.16;50.35
77052;SHT30;65980;44.898;8.602;2023-11-22T13:34:40;19.32;48.35
77052;SHT30;65980;44.898;8.602;2023-11-22T13:37:45;19.75;47.18
77052;SHT30;65980;44.898;8.602;2023-11-22T13:40:49;18.66;49.61
77052;SHT30;65980;44.898;8.602;2023-11-22T13:43:57;16.24;54.68
77052;SHT30;65980;44.898;8.602;2023-11-22T13:47:01;15.94;55.62
77052;SHT30;65980;44.898;8.602;2023-11-22T13:50:08;15.35;57.79
77052;SHT30;65980;44.898;8.602;2023-11-22T13:53:13;15.14;57.93
77052;SHT30;65980;44.898;8.602;2023-11-22T13:56:17;14.62;59.93
77052;SHT30;65980;44.898;8.602;2023-11-22T13:59:21;14.38;60.08
77052;SHT30;65980;44.898;8.602;2023-11-22T14:02:25;14.35;60.50
77052;SHT30;65980;44.898;8.602;2023-11-22T14:05:28;14.46;60.76
77052;SHT30;65980;44.898;8.602;2023-11-22T14:08:39;14.52;60.24
77052;SHT30;65980;44.898;8.602;2023-11-22T14:11:44;14.38;60.90
77052;SHT30;65980;44.898;8.602;2023-11-22T14:14:48;14.56;59.74
77052;SHT30;65980;44.898;8.602;2023-11-22T14:17:54;14.54;60.58
77052;SHT30;65980;44.898;8.602;2023-11-22T14:21:02;14.39;59.86
77052;SHT30;65980;44.898;8.602;2023-11-22T14:24:08;14.41;60.14
77052;SHT30;65980;44.898;8.602;2023-11-22T14:27:13;14.52;60.08
77052;SHT30;65980;44.898;8.602;2023-11-22T14:30:18;14.52;60.02
77052;SHT30;65980;44.898;8.602;2023-11-22T14:33:26;14.52;60.37
77052;SHT30;65980;44.898;8.602;2023-11-22T14:36:30;14.11;61.32
77052;SHT30;65980;44.898;8.602;2023-11-22T14:39:35;14.03;61.70
77052;SHT30;65980;44.898;8.602;2023-11-22T14:42:44;14.22;62.28
77052;SHT30;65980;44.898;8.602;2023-11-22T14:45:51;14.37;62.12
77052;SHT30;65980;44.898;8.602;2023-11-22T14:48:55;14.37;60.03
77052;SHT30;65980;44.898;8.602;2023-11-22T14:52:03;14.35;59.71
77052;SHT30;65980;44.898;8.602;2023-11-22T14:55:11;14.35;59.50
77052;SHT30;65980;44.898;8.602;2023-11-22T14:58:17;14.32;60.05
77052;SHT30;65980;44.898;8.602;2023-11-22T15:01:21;14.28;60.34
77052;SHT30;65980;44.898;8.602;2023-11-22T15:04:37;14.10;61.40
77052;SHT30;65980;44.898;8.602;2023-11-22T15:08:07;13.86;62.55
77052;SHT30;65980;44.898;8.602;2023-11-22T15:11:44;13.84;62.44
77052;SHT30;65980;44.898;8.602;2023-11-22T15:14:49;13.73;62.89
77052;SHT30;65980;44.898;8.602;2023-11-22T15:17:53;13.63;63.11
77052;SHT30;65980;44.898;8.602;2023-11-22T15:20:58;13.73;63.13
77052;SHT30;65980;44.898;8.602;2023-11-22T15:24:02;13.77;63.26
77052;SHT30;65980;44.898;8.602;2023-11-22T15:27:07;13.76;63.25
77052;SHT30;65980;44.898;8.602;2023-11-22T15:30:12;13.74;63.10
77052;SHT30;65980;44.898;8.602;2023-11-22T15:33:17;13.69;63.33
77052;SHT30;65980;44.898;8.602;2023-11-22T15:36:22;13.61;63.60
77052;SHT30;65980;44.898;8.602;2023-11-22T15:39:27;13.48;64.01
77052;SHT30;65980;44.898;8.602;2023-11-22T15:42:32;13.44;64.70
77052;SHT30;65980;44.898;8.602;2023-11-22T15:45:37;13.25;65.79
77052;SHT30;65980;44.898;8.602;2023-11-22T15:48:44;13.14;65.59
77052;SHT30;65980;44.898;8.602;2023-11-22T15:51:49;12.99;66.11
77052;SHT30;65980;44.898;8.602;2023-11-22T15:54:56;12.99;66.15
77052;SHT30;65980;44.898;8.602;2023-11-22T15:58:02;12.92;66.16
77052;SHT30;65980;44.898;8.602;2023-11-22T16:01:05;12.77;67.06
77052;SHT30;65980;44.898;8.602;2023-11-22T16:04:10;12.69;67.22
77052;SHT30;65980;44.898;8.602;2023-11-22T16:07:19;12.48;66.84
77052;SHT30;65980;44.898;8.602;2023-11-22T16:10:25;12.39;67.14
77052;SHT30;65980;44.898;8.602;2023-11-22T16:13:28;12.35;67.60
77052;SHT30;65980;44.898;8.602;2023-11-22T16:16:37;12.35;67.19
77052;SHT30;65980;44.898;8.602;2023-11-22T16:19:45;12.34;67.13
77052;SHT30;65980;44.898;8.602;2023-11-22T16:22:50;11.67;69.60
77052;SHT30;65980;44.898;8.602;2023-11-22T16:25:56;11.52;69.92
77052;SHT30;65980;44.898;8.602;2023-11-22T16:29:01;11.77;68.60
77052;SHT30;65980;44.898;8.602;2023-11-22T16:32:11;11.87;68.38
77052;SHT30;65980;44.898;8.602;2023-11-22T16:35:23;11.87;68.76
77052;SHT30;65980;44.898;8.602;2023-11-22T16:38:27;11.90;68.40
77052;SHT30;65980;44.898;8.602;2023-11-22T16:41:54;11.97;68.28
77052;SHT30;65980;44.898;8.602;2023-11-22T16:44:59;11.95;67.95
77052;SHT30;65980;44.898;8.602;2023-11-22T16:48:04;11.94;68.00
77052;SHT30;65980;44.898;8.602;2023-11-22T16:51:15;11.90;68.57
77052;SHT30;65980;44.898;8.602;2023-11-22T16:54:19;11.91;68.28
77052;SHT30;65980;44.898;8.602;2023-11-22T16:57:27;11.86;68.48
77052;SHT30;65980;44.898;8.602;2023-11-22T17:00:32;11.69;68.72
77052;SHT30;65980;44.898;8.602;2023-11-22T17:03:36;11.70;68.68
77052;SHT30;65980;44.898;8.602;2023-11-22T17:06:44;11.67;69.06
77052;SHT30;65980;44.898;8.602;2023-11-22T17:09:50;11.73;69.17
77052;SHT30;65980;44.898;8.602;2023-11-22T17:12:55;11.38;70.02
77052;SHT30;65980;44.898;8.602;2023-11-22T17:16:03;11.00;71.59
77052;SHT30;65980;44.898;8.602;2023-11-22T17:19:08;10.83;71.97
77052;SHT30;65980;44.898;8.602;2023-11-22T17:22:13;10.72;72.44
77052;SHT30;65980;44.898;8.602;2023-11-22T17:25:18;10.89;71.67
77052;SHT30;65980;44.898;8.602;2023-11-22T17:28:29;10.84;71.80
77052;SHT30;65980;44.898;8.602;2023-11-22T17:31:34;10.94;71.49
77052;SHT30;65980;44.898;8.602;2023-11-22T17:34:40;10.96;71.25
77052;SHT30;65980;44.898;8.602;2023-11-22T17:37:50;11.14;70.48
77052;SHT30;65980;44.898;8.602;2023-11-22T17:40:57;11.03;70.60
77052;SHT30;65980;44.898;8.602;2023-11-22T17:44:02;10.89;70.98
77052;SHT30;65980;44.898;8.602;2023-11-22T17:47:06;10.49;72.45
77052;SHT30;65980;44.898;8.602;2023-11-22T17:50:14;10.20;73.64
77052;SHT30;65980;44.898;8.602;2023-11-22T17:53:23;9.93;74.37
77052;SHT30;65980;44.898;8.602;2023-11-22T17:56:30;9.76;75.50
77052;SHT30;65980;44.898;8.602;2023-11-22T17:59:34;9.75;75.78
77052;SHT30;65980;44.898;8.602;2023-11-22T18:02:39;9.63;76.00
77052;SHT30;65980;44.898;8.602;2023-11-22T18:05:51;9.63;76.03
77052;SHT30;65980;44.898;8.602;2023-11-22T18:08:56;9.79;75.55
77052;SHT30;65980;44.898;8.602;2023-11-22T18:12:01;9.76;75.84
77052;SHT30;65980;44.898;8.602;2023-11-22T18:15:06;9.86;75.32
77052;SHT30;65980;44.898;8.602;2023-11-22T18:18:11;9.97;74.98
77052;SHT30;65980;44.898;8.602;2023-11-22T18:21:16;10.03;74.53
77052;SHT30;65980;44.898;8.602;2023-11-22T18:24:21;10.10;74.18
77052;SHT30;65980;44.898;8.602;2023-11-22T18:27:26;10.03;74.12
77052;SHT30;65980;44.898;8.602;2023-11-22T18:30:31;10.10;73.78
77052;SHT30;65980;44.898;8.602;2023-11-22T18:33:36;10.14;73.51
77052;SHT30;65980;44.898;8.602;2023-11-22T18:36:41;10.22;72.91
77052;SHT30;65980;44.898;8.602;2023-11-22T18:39:46;10.25;72.88
77052;SHT30;65980;44.898;8.602;2023-11-22T18:42:52;10.30;72.60
77052;SHT30;65980;44.898;8.602;2023-11-22T18:45:57;10.28;72.34
77052;SHT30;65980;44.898;8.602;2023-11-22T18:49:13;10.28;72.18
77052;SHT30;65980;44.898;8.602;2023-11-22T18:52:18;10.38;71.85
77052;SHT30;65980;44.898;8.602;2023-11-22T18:55:22;10.25;71.34
77052;SHT30;65980;44.898;8.602;2023-11-22T18:58:28;10.45;71.36
77052;SHT30;65980;44.898;8.602;2023-11-22T19:01:33;10.59;71.24
77052;SHT30;65980;44.898;8.602;2023-11-22T19:04:40;10.63;70.46
77052;SHT30;65980;44.898;8.602;2023-11-22T19:07:46;10.70;70.66
77052;SHT30;65980;44.898;8.602;2023-11-22T19:10:54;10.76;70.07
77052;SHT30;65980;44.898;8.602;2023-11-22T19:13:59;10.81;69.71
77052;SHT30;65980;44.898;8.602;2023-11-22T19:17:04;10.76;69.78
77052;SHT30;65980;44.898;8.602;2023-11-22T19:20:13;10.83;69.54
77052;SHT30;65980;44.898;8.602;2023-11-22T19:23:17;10.83;69.57
77052;SHT30;65980;44.898;8.602;2023-11-22T19:26:25;10.80;69.59
77052;SHT30;65980;44.898;8.602;2023-11-22T19:29:38;10.79;69.77
77052;SHT30;65980;44.898;8.602;2023-11-22T19:32:47;10.69;69.97
77052;SHT30;65980;44.898;8.602;2023-11-22T19:35:52;10.55;70.31
77052;SHT30;65980;44.898;8.602;2023-11-22T19:38:57;10.48;70.12
77052;SHT30;65980;44.898;8.602;2023-11-22T19:42:02;10.59;70.13
77052;SHT30;65980;44.898;8.602;2023-11-22T19:45:11;10.62;69.98
77052;SHT30;65980;44.898;8.602;2023-11-22T19:48:19;10.63;69.76
77052;SHT30;65980;44.898;8.602;2023-11-22T19:51:24;10.63;69.59
77052;SHT30;65980;44.898;8.602;2023-11-22T19:54:28;10.50;70.37
77052;SHT30;65980;44.898;8.602;2023-11-22T19:57:33;10.49;70.41
77052;SHT30;65980;44.898;8.602;2023-11-22T20:00:37;10.52;70.22